createdAt,value
2023-05-21T00:00:22.630Z,99.90
2023-05-21T00:02:49.892Z,99.90
2023-05-21T00:05:18.685Z,99.90
2023-05-21T00:08:16.056Z,99.90
2023-05-21T00:10:43.131Z,99.90
2023-05-21T00:13:10.674Z,99.90
2023-05-21T00:16:01.564Z,99.90
2023-05-21T00:18:28.723Z,99.90
2023-05-21T00:25:20.833Z,99.90
2023-05-21T00:28:29.417Z,99.90
2023-05-21T00:30:56.610Z,99.90
2023-05-21T00:33:26.754Z,99.90
2023-05-21T00:39:34.810Z,99.90
2023-05-21T00:42:01.799Z,99.90
2023-05-21T00:44:34.497Z,99.90
2023-05-21T00:47:02.711Z,99.90
2023-05-21T00:49:30.784Z,99.90
2023-05-21T00:52:01.721Z,99.90
2023-05-21T00:55:00.589Z,99.90
2023-05-21T00:57:27.978Z,99.90
2023-05-21T00:59:55.660Z,99.90
2023-05-21T01:02:46.717Z,99.90
2023-05-21T01:05:15.629Z,99.90
2023-05-21T01:07:43.845Z,99.90
2023-05-21T01:10:33.249Z,99.90
2023-05-21T01:13:00.632Z,99.90
2023-05-21T01:15:28.173Z,99.90
2023-05-21T01:17:57.411Z,99.90
2023-05-21T01:20:25.971Z,99.90
2023-05-21T01:22:55.008Z,99.90
2023-05-21T01:25:28.233Z,99.90
2023-05-21T01:28:21.078Z,99.90
2023-05-21T01:30:48.833Z,99.90
2023-05-21T01:33:17.882Z,99.90
2023-05-21T01:36:02.068Z,99.90
2023-05-21T01:38:37.663Z,99.90
2023-05-21T01:41:18.122Z,99.90
2023-05-21T01:43:47.202Z,99.90
2023-05-21T01:46:21.962Z,99.90
2023-05-21T01:48:51.481Z,99.90
2023-05-21T01:51:26.185Z,99.90
2023-05-21T01:53:55.302Z,99.90
2023-05-21T01:56:25.983Z,99.90
2023-05-21T01:58:53.370Z,99.90
2023-05-21T02:01:20.493Z,99.90
2023-05-21T02:03:47.717Z,99.90
2023-05-21T02:06:24.233Z,99.90
2023-05-21T02:08:51.291Z,99.90
2023-05-21T02:11:18.311Z,99.90
2023-05-21T02:13:46.321Z,99.90
2023-05-21T02:16:15.030Z,99.90
2023-05-21T02:18:46.653Z,99.90
2023-05-21T02:21:13.718Z,99.90
2023-05-21T02:23:42.781Z,99.90
2023-05-21T02:26:09.879Z,99.90
2023-05-21T02:28:36.958Z,99.90
2023-05-21T02:31:04.307Z,99.90
2023-05-21T02:33:31.425Z,99.90
2023-05-21T02:35:58.615Z,99.90
2023-05-21T02:38:34.123Z,99.90
2023-05-21T02:41:01.197Z,99.90
2023-05-21T02:43:29.312Z,99.90
2023-05-21T02:45:56.505Z,99.90
2023-05-21T02:48:23.676Z,99.90
2023-05-21T02:50:52.818Z,99.90
2023-05-21T02:53:19.953Z,99.90
2023-05-21T02:55:47.014Z,99.90
2023-05-21T02:58:15.194Z,99.90
2023-05-21T03:00:42.374Z,99.90
2023-05-21T03:03:09.649Z,99.90
2023-05-21T03:05:38.003Z,99.90
2023-05-21T03:08:05.521Z,99.90
2023-05-21T03:10:32.964Z,99.90
2023-05-21T03:13:00.200Z,99.90
2023-05-21T03:15:27.377Z,99.90
2023-05-21T03:17:55.501Z,99.90
2023-05-21T03:20:22.597Z,99.90
2023-05-21T03:22:50.081Z,99.90
2023-05-21T03:25:17.173Z,99.90
2023-05-21T03:27:46.333Z,99.90
2023-05-21T03:30:13.845Z,99.90
2023-05-21T03:32:41.619Z,99.90
2023-05-21T03:35:15.966Z,99.90
2023-05-21T03:37:43.030Z,99.90
2023-05-21T03:40:10.811Z,99.90
2023-05-21T03:42:38.916Z,99.90
2023-05-21T03:45:07.055Z,99.90
2023-05-21T03:47:36.210Z,99.90
2023-05-21T03:50:03.761Z,99.90
2023-05-21T03:52:30.792Z,99.90
2023-05-21T03:54:57.897Z,99.90
2023-05-21T03:57:24.937Z,99.90
2023-05-21T03:59:51.965Z,99.90
2023-05-21T04:02:19.131Z,99.90
2023-05-21T04:04:46.884Z,99.90
2023-05-21T04:07:15.499Z,99.90
2023-05-21T04:09:42.696Z,99.90
2023-05-21T04:12:09.893Z,99.90
2023-05-21T04:14:40.297Z,99.90
2023-05-21T04:17:07.469Z,99.90
2023-05-21T04:19:34.656Z,99.90
2023-05-21T04:22:01.923Z,99.90
2023-05-21T04:24:29.003Z,99.90
2023-05-21T04:26:56.309Z,99.90
2023-05-21T04:29:23.616Z,99.90
2023-05-21T04:31:50.842Z,99.90
2023-05-21T04:34:20.869Z,99.90
2023-05-21T04:36:48.279Z,99.90
2023-05-21T04:39:16.517Z,99.90
2023-05-21T04:41:44.435Z,99.90
2023-05-21T04:44:15.326Z,99.90
2023-05-21T04:46:42.936Z,99.90
2023-05-21T04:49:10.438Z,99.90
2023-05-21T04:51:38.475Z,99.90
2023-05-21T04:54:05.621Z,99.90
2023-05-21T04:56:32.952Z,99.90
2023-05-21T04:59:06.449Z,99.90
2023-05-21T05:01:35.541Z,99.90
2023-05-21T05:04:02.717Z,99.90
2023-05-21T05:06:31.924Z,99.90
2023-05-21T05:08:59.008Z,99.90
2023-05-21T05:11:26.861Z,99.90
2023-05-21T05:13:54.164Z,99.90
2023-05-21T05:16:25.697Z,99.90
2023-05-21T05:18:53.320Z,99.90
2023-05-21T05:21:22.766Z,99.90
2023-05-21T05:23:50.296Z,99.90
2023-05-21T05:26:17.449Z,99.90
2023-05-21T05:28:46.052Z,99.90
2023-05-21T05:31:13.353Z,99.90
2023-05-21T05:33:41.696Z,99.90
2023-05-21T05:36:08.827Z,99.90
2023-05-21T05:38:36.257Z,99.90
2023-05-21T05:41:04.441Z,99.90
2023-05-21T05:43:31.494Z,99.90
2023-05-21T05:45:58.674Z,99.90
2023-05-21T05:48:25.833Z,99.90
2023-05-21T05:50:56.173Z,99.90
2023-05-21T05:53:23.291Z,99.90
2023-05-21T05:55:50.307Z,99.90
2023-05-21T05:58:19.613Z,99.90
2023-05-21T06:00:46.950Z,99.90
2023-05-21T06:03:14.221Z,99.90
2023-05-21T06:05:41.411Z,99.90
2023-05-21T06:08:09.570Z,99.90
2023-05-21T06:10:36.865Z,99.90
2023-05-21T06:13:04.081Z,99.90
2023-05-21T06:15:34.128Z,99.90
2023-05-21T06:18:01.477Z,99.90
2023-05-21T06:20:30.058Z,99.90
2023-05-21T06:22:57.143Z,99.90
2023-05-21T06:25:25.909Z,99.90
2023-05-21T06:27:52.952Z,99.90
2023-05-21T06:30:20.047Z,99.90
2023-05-21T06:32:49.385Z,99.90
2023-05-21T06:35:16.535Z,99.90
2023-05-21T06:37:43.578Z,99.90
2023-05-21T06:40:18.798Z,99.90
2023-05-21T06:42:45.977Z,99.90
2023-05-21T06:45:13.088Z,99.90
2023-05-21T06:47:44.228Z,99.90
2023-05-21T06:50:11.358Z,99.90
2023-05-21T06:52:38.368Z,99.90
2023-05-21T06:55:07.310Z,99.90
2023-05-21T06:57:34.397Z,99.90
2023-05-21T07:00:01.752Z,98.80
2023-05-21T07:02:55.947Z,97.30
2023-05-21T07:05:23.055Z,96.10
2023-05-21T07:07:50.117Z,95.50
2023-05-21T07:10:37.365Z,95.30
2023-05-21T07:13:04.389Z,94.70
2023-05-21T07:15:38.011Z,94.70
2023-05-21T07:18:05.296Z,95.30
2023-05-21T07:20:32.439Z,94.80
2023-05-21T07:23:01.548Z,94.20
2023-05-21T07:25:29.577Z,94.20
2023-05-21T07:28:08.125Z,93.60
2023-05-21T07:30:35.274Z,92.80
2023-05-21T07:33:02.830Z,93.10
2023-05-21T07:35:34.155Z,91.90
2023-05-21T07:38:01.780Z,91.10
2023-05-21T07:40:29.038Z,91.90
2023-05-21T07:43:00.429Z,91.70
2023-05-21T07:45:27.769Z,90.80
2023-05-21T07:47:55.111Z,90.20
2023-05-21T07:50:26.187Z,89.10
2023-05-21T07:52:53.618Z,90.90
2023-05-21T07:55:21.109Z,91.00
2023-05-21T07:58:06.452Z,92.10
2023-05-21T08:00:55.151Z,91.00
2023-05-21T08:03:23.047Z,92.40
2023-05-21T08:05:51.154Z,90.80
2023-05-21T08:08:27.953Z,91.60
2023-05-21T08:10:55.275Z,91.90
2023-05-21T08:13:22.578Z,90.80
2023-05-21T08:16:03.211Z,91.90
2023-05-21T08:18:30.279Z,91.30
2023-05-21T08:20:57.583Z,91.60
2023-05-21T08:24:24.491Z,92.10
2023-05-21T08:26:52.189Z,93.90
2023-05-21T08:29:21.212Z,92.50
2023-05-21T08:32:02.680Z,93.00
2023-05-21T08:37:23.212Z,92.10
2023-05-21T08:40:16.982Z,92.80
2023-05-21T08:42:51.966Z,93.40
2023-05-21T08:45:51.893Z,93.40
2023-05-21T08:48:29.524Z,93.00
2023-05-21T08:51:02.926Z,91.30
2023-05-21T08:53:32.812Z,93.50
2023-05-21T08:56:02.387Z,92.30
2023-05-21T08:58:36.959Z,93.40
2023-05-21T09:01:51.749Z,92.90
2023-05-21T09:04:31.936Z,93.10
2023-05-21T09:07:03.376Z,91.30
2023-05-21T09:10:10.153Z,91.60
2023-05-21T09:15:23.155Z,91.10
2023-05-21T09:17:57.714Z,91.40
2023-05-21T09:20:50.722Z,92.60
2023-05-21T09:23:25.705Z,92.50
2023-05-21T09:25:59.635Z,91.90
2023-05-21T09:31:31.180Z,91.70
2023-05-21T09:34:01.707Z,90.20
2023-05-21T09:36:52.122Z,90.00
2023-05-21T09:39:39.031Z,89.20
2023-05-21T09:42:08.508Z,88.40
2023-05-21T09:45:06.123Z,90.10
2023-05-21T09:47:50.807Z,90.80
2023-05-21T09:50:33.841Z,91.40
2023-05-21T09:53:09.807Z,91.70
2023-05-21T09:55:38.852Z,91.50
2023-05-21T09:58:13.519Z,91.10
2023-05-21T10:00:52.225Z,90.90
2023-05-21T10:03:28.897Z,93.20
2023-05-21T10:05:58.424Z,90.90
2023-05-21T10:08:42.971Z,91.20
2023-05-21T10:11:12.580Z,90.40
2023-05-21T10:13:51.794Z,91.40
2023-05-21T10:16:19.884Z,89.40
2023-05-21T10:18:50.123Z,90.90
2023-05-21T10:21:21.115Z,91.10
2023-05-21T10:23:51.128Z,90.60
2023-05-21T10:26:23.744Z,91.50
2023-05-21T10:29:00.064Z,90.50
2023-05-21T10:31:28.170Z,87.10
2023-05-21T10:33:57.245Z,90.20
2023-05-21T10:36:32.006Z,88.20
2023-05-21T10:39:01.825Z,87.00
2023-05-21T10:41:46.662Z,89.40
2023-05-21T10:44:44.667Z,90.00
2023-05-21T10:47:44.717Z,87.10
2023-05-21T10:50:35.721Z,90.50
2023-05-21T10:53:33.414Z,85.50
2023-05-21T10:56:24.369Z,88.90
2023-05-21T10:59:43.659Z,86.60
2023-05-21T11:02:15.855Z,90.00
2023-05-21T11:04:46.695Z,84.30
2023-05-21T11:07:14.603Z,87.00
2023-05-21T11:09:51.179Z,85.10
2023-05-21T11:12:20.647Z,89.30
2023-05-21T11:14:59.532Z,88.60
2023-05-21T11:17:44.874Z,87.50
2023-05-21T11:20:15.762Z,86.60
2023-05-21T11:23:12.662Z,87.50
2023-05-21T11:25:46.995Z,90.00
2023-05-21T11:28:18.437Z,85.80
2023-05-21T11:31:27.916Z,87.00
2023-05-21T11:37:59.541Z,86.30
2023-05-21T11:40:32.190Z,86.50
2023-05-21T11:43:00.404Z,89.80
2023-05-21T11:45:34.490Z,87.50
2023-05-21T11:48:03.752Z,86.30
2023-05-21T11:50:32.210Z,87.90
2023-05-21T11:53:00.124Z,89.30
2023-05-21T11:55:27.804Z,87.10
2023-05-21T11:57:56.152Z,88.50
2023-05-21T12:00:23.581Z,88.80
2023-05-21T12:02:53.988Z,87.70
2023-05-21T12:05:21.819Z,87.30
2023-05-21T12:07:52.698Z,87.40
2023-05-21T12:10:24.345Z,87.40
2023-05-21T12:12:57.920Z,87.10
2023-05-21T12:15:26.802Z,84.30
2023-05-21T12:17:55.069Z,83.80
2023-05-21T12:20:22.799Z,81.70
2023-05-21T12:22:50.781Z,84.50
2023-05-21T12:25:20.300Z,82.20
2023-05-21T12:27:48.847Z,82.60
2023-05-21T12:30:16.253Z,85.10
2023-05-21T12:32:46.680Z,83.80
2023-05-21T12:35:24.553Z,81.70
2023-05-21T12:37:53.285Z,81.50
2023-05-21T12:40:49.908Z,82.90
2023-05-21T12:43:17.061Z,81.80
2023-05-21T12:45:44.548Z,84.20
2023-05-21T12:48:12.770Z,82.60
2023-05-21T12:50:41.179Z,83.80
2023-05-21T12:53:12.534Z,79.50
2023-05-21T12:55:40.817Z,79.20
2023-05-21T12:58:13.595Z,82.00
2023-05-21T13:00:42.667Z,82.80
2023-05-21T13:03:09.996Z,80.50
2023-05-21T13:05:40.924Z,83.40
2023-05-21T13:08:10.796Z,82.20
2023-05-21T13:10:38.037Z,81.80
2023-05-21T13:13:05.412Z,84.40
2023-05-21T13:15:33.237Z,82.50
2023-05-21T13:18:01.579Z,83.60
2023-05-21T13:20:30.076Z,86.00
2023-05-21T13:22:57.322Z,81.80
2023-05-21T13:25:29.075Z,85.80
2023-05-21T13:27:57.287Z,85.80
2023-05-21T13:30:24.563Z,86.10
2023-05-21T13:32:52.410Z,84.70
2023-05-21T13:35:20.214Z,87.10
2023-05-21T13:37:47.266Z,88.30
2023-05-21T13:40:16.213Z,84.50
2023-05-21T13:42:48.882Z,86.20
2023-05-21T13:45:20.427Z,86.80
2023-05-21T13:47:48.295Z,88.20
2023-05-21T13:50:16.626Z,87.60
2023-05-21T13:52:44.075Z,86.20
2023-05-21T13:55:12.596Z,84.60
2023-05-21T13:57:40.912Z,85.10
2023-05-21T14:00:14.382Z,82.70
2023-05-21T14:02:45.321Z,82.70
2023-05-21T14:05:13.132Z,79.80
2023-05-21T14:07:40.236Z,81.50
2023-05-21T14:10:08.911Z,82.20
2023-05-21T14:12:36.647Z,79.70
2023-05-21T14:15:04.079Z,77.70
2023-05-21T14:17:33.478Z,78.30
2023-05-21T14:20:00.716Z,84.90
2023-05-21T14:22:27.883Z,83.60
2023-05-21T14:24:55.022Z,79.40
2023-05-21T14:27:28.152Z,81.10
2023-05-21T14:29:55.233Z,83.50
2023-05-21T14:32:23.137Z,83.60
2023-05-21T14:34:54.179Z,82.50
2023-05-21T14:37:21.880Z,83.20
2023-05-21T14:39:48.978Z,82.50
2023-05-21T14:42:16.089Z,82.50
2023-05-21T14:44:43.108Z,83.20
2023-05-21T14:47:10.141Z,80.70
2023-05-21T14:49:38.228Z,79.60
2023-05-21T14:52:05.670Z,81.00
2023-05-21T14:54:32.742Z,81.60
2023-05-21T14:56:59.770Z,78.30
2023-05-21T14:59:27.891Z,80.50
2023-05-21T15:01:55.080Z,83.00
2023-05-21T15:04:22.284Z,80.70
2023-05-21T15:06:49.343Z,79.80
2023-05-21T15:09:18.587Z,80.30
2023-05-21T15:11:46.286Z,77.40
2023-05-21T15:14:13.333Z,75.10
2023-05-21T15:16:40.669Z,71.40
2023-05-21T15:19:07.782Z,74.80
2023-05-21T15:21:35.860Z,72.60
2023-05-21T15:24:02.962Z,71.10
2023-05-21T15:26:32.035Z,64.80
2023-05-21T15:28:59.072Z,70.30
2023-05-21T15:31:28.393Z,67.80
2023-05-21T15:33:59.680Z,67.10
2023-05-21T15:36:27.718Z,67.50
2023-05-21T15:38:54.946Z,69.40
2023-05-21T15:41:27.021Z,67.90
2023-05-21T15:43:54.204Z,66.50
2023-05-21T15:46:21.451Z,64.50
2023-05-21T15:48:49.016Z,68.60
2023-05-21T15:51:16.353Z,69.50
2023-05-21T15:53:43.462Z,74.30
2023-05-21T15:56:12.703Z,72.50
2023-05-21T15:58:39.953Z,74.90
2023-05-21T16:01:07.338Z,73.20
2023-05-21T16:03:40.330Z,73.90
2023-05-21T16:06:08.461Z,73.50
2023-05-21T16:08:35.883Z,73.20
2023-05-21T16:11:03.714Z,75.10
2023-05-21T16:13:32.816Z,74.50
2023-05-21T16:15:59.936Z,74.90
2023-05-21T16:18:27.004Z,76.70
2023-05-21T16:20:56.665Z,77.50
2023-05-21T16:23:24.236Z,75.60
2023-05-21T16:26:05.379Z,76.10
2023-05-21T16:28:32.610Z,75.00
2023-05-21T16:30:59.957Z,78.90
2023-05-21T16:33:31.856Z,79.90
2023-05-21T16:35:59.411Z,78.60
2023-05-21T16:38:26.729Z,80.00
2023-05-21T16:40:53.882Z,75.60
2023-05-21T16:43:21.223Z,77.50
2023-05-21T16:45:49.323Z,78.10
2023-05-21T16:48:16.769Z,76.50
2023-05-21T16:50:49.234Z,75.30
2023-05-21T16:53:17.224Z,73.60
2023-05-21T16:55:44.503Z,75.10
2023-05-21T16:58:14.526Z,76.70
2023-05-21T17:00:41.844Z,77.00
2023-05-21T17:03:09.190Z,79.10
2023-05-21T17:05:38.778Z,78.60
2023-05-21T17:08:06.094Z,81.10
2023-05-21T17:10:34.186Z,79.10
2023-05-21T17:13:09.766Z,80.70
2023-05-21T17:15:45.293Z,79.80
2023-05-21T17:18:14.512Z,81.90
2023-05-21T17:20:43.821Z,80.80
2023-05-21T17:23:12.099Z,81.10
2023-05-21T17:25:40.222Z,80.30
2023-05-21T17:28:07.831Z,83.30
2023-05-21T17:30:35.007Z,83.90
2023-05-21T17:33:03.892Z,84.00
2023-05-21T17:35:31.140Z,82.10
2023-05-21T17:37:58.243Z,82.00
2023-05-21T17:40:25.516Z,83.60
2023-05-21T17:42:52.997Z,84.00
2023-05-21T17:45:20.480Z,85.90
2023-05-21T17:47:47.712Z,85.70
2023-05-21T17:50:16.205Z,85.90
2023-05-21T17:52:43.254Z,86.30
2023-05-21T17:55:11.053Z,85.90
2023-05-21T17:57:38.418Z,86.50
2023-05-21T18:00:07.014Z,85.80
2023-05-21T18:02:35.832Z,85.50
2023-05-21T18:05:03.131Z,87.30
2023-05-21T18:07:30.302Z,86.50
2023-05-21T18:09:57.393Z,86.70
2023-05-21T18:12:24.467Z,88.50
2023-05-21T18:14:51.616Z,87.30
2023-05-21T18:17:18.875Z,88.60
2023-05-21T18:19:46.058Z,90.20
2023-05-21T18:22:13.250Z,90.00
2023-05-21T18:24:40.405Z,89.90
2023-05-21T18:27:07.655Z,90.40
2023-05-21T18:29:34.745Z,90.50
2023-05-21T18:32:07.840Z,90.40
2023-05-21T18:34:35.141Z,90.50
2023-05-21T18:37:03.323Z,90.50
2023-05-21T18:39:30.546Z,90.30
2023-05-21T18:44:27.578Z,90.50
2023-05-21T18:46:55.688Z,90.10
2023-05-21T18:49:24.268Z,90.40
2023-05-21T18:51:51.403Z,90.50
2023-05-21T18:54:18.452Z,90.50
2023-05-21T18:56:46.576Z,90.60
2023-05-21T18:59:13.678Z,90.70
2023-05-21T19:01:40.839Z,90.80
2023-05-21T19:04:09.942Z,91.20
2023-05-21T19:06:36.986Z,91.10
2023-05-21T19:09:04.156Z,91.20
2023-05-21T19:11:34.446Z,91.20
2023-05-21T19:14:05.876Z,91.40
2023-05-21T19:16:33.001Z,91.50
2023-05-21T19:19:00.246Z,91.50
2023-05-21T19:21:29.413Z,91.80
2023-05-21T19:23:56.589Z,92.20
2023-05-21T19:26:24.878Z,92.70
2023-05-21T19:28:53.886Z,93.40
2023-05-21T19:31:22.372Z,93.20
2023-05-21T19:33:49.586Z,93.40
2023-05-21T19:36:17.164Z,93.30
2023-05-21T19:38:48.619Z,93.20
2023-05-21T19:41:16.678Z,93.50
2023-05-21T19:43:43.935Z,94.20
2023-05-21T19:46:11.493Z,94.60
2023-05-21T19:48:38.875Z,95.00
2023-05-21T19:51:06.162Z,95.50
2023-05-21T19:53:33.431Z,96.00
2023-05-21T19:56:00.498Z,96.50
2023-05-21T19:58:30.494Z,96.90
2023-05-21T20:01:00.386Z,97.20
2023-05-21T20:03:35.917Z,97.70
2023-05-21T20:06:03.730Z,97.90
2023-05-21T20:08:30.931Z,98.20
2023-05-21T20:10:59.298Z,98.40
2023-05-21T20:13:26.930Z,98.70
2023-05-21T20:15:54.828Z,99.00
2023-05-21T20:18:28.936Z,99.20
2023-05-21T20:20:57.443Z,99.20
2023-05-21T20:23:25.253Z,99.30
2023-05-21T20:25:52.753Z,99.40
2023-05-21T20:28:21.776Z,99.60
2023-05-21T20:31:00.424Z,99.90
2023-05-21T20:33:28.692Z,99.90
2023-05-21T20:35:56.612Z,99.90
2023-05-21T20:38:27.728Z,99.90
2023-05-21T20:41:02.173Z,99.90
2023-05-21T20:43:29.254Z,99.90
2023-05-21T20:46:00.300Z,99.90
2023-05-21T20:48:32.396Z,99.90
2023-05-21T20:51:05.022Z,99.90
2023-05-21T20:53:52.334Z,99.90
2023-05-21T20:56:29.823Z,99.90
2023-05-21T20:59:09.272Z,99.90
2023-05-21T21:01:38.560Z,99.90
2023-05-21T21:04:14.529Z,99.90
2023-05-21T21:06:42.512Z,99.90
2023-05-21T21:09:09.822Z,99.90
2023-05-21T21:11:37.190Z,99.90
2023-05-21T21:14:04.644Z,99.90
2023-05-21T21:16:34.063Z,99.90
2023-05-21T21:19:01.861Z,99.90
2023-05-21T21:21:36.365Z,99.90
2023-05-21T21:24:04.113Z,99.90
2023-05-21T21:26:35.211Z,99.90
2023-05-21T21:29:02.589Z,99.90
2023-05-21T21:31:33.218Z,99.90
2023-05-21T21:34:01.072Z,99.90
2023-05-21T21:36:30.289Z,99.90
2023-05-21T21:38:57.932Z,99.90
2023-05-21T21:41:25.742Z,99.90
2023-05-21T21:43:57.293Z,99.90
2023-05-21T21:46:26.459Z,99.90
2023-05-21T21:48:54.097Z,99.90
2023-05-21T21:51:23.381Z,99.90
2023-05-21T21:53:51.871Z,99.90
2023-05-21T21:56:19.697Z,99.90
2023-05-21T21:58:57.186Z,99.90
2023-05-21T22:01:24.897Z,99.90
2023-05-21T22:03:52.662Z,99.90
2023-05-21T22:06:24.047Z,99.90
2023-05-21T22:08:51.431Z,99.90
2023-05-21T22:11:24.663Z,99.90
2023-05-21T22:13:54.312Z,99.90
2023-05-21T22:16:21.825Z,99.90
2023-05-21T22:18:50.400Z,99.90
2023-05-21T22:21:18.839Z,99.90
2023-05-21T22:23:57.156Z,99.90
2023-05-21T22:26:24.688Z,99.90
2023-05-21T22:28:52.870Z,99.90
2023-05-21T22:31:26.709Z,99.90
2023-05-21T22:33:54.438Z,99.90
2023-05-21T22:36:25.307Z,99.90
2023-05-21T22:38:55.527Z,99.90
2023-05-21T22:41:23.400Z,99.90
2023-05-21T22:43:53.856Z,99.90
2023-05-21T22:46:25.518Z,99.90
2023-05-21T22:48:54.909Z,99.90
2023-05-21T22:51:22.884Z,99.90
2023-05-21T22:53:53.923Z,99.90
2023-05-21T22:56:22.361Z,99.90
2023-05-21T22:58:50.005Z,99.90
2023-05-21T23:01:17.696Z,99.90
2023-05-21T23:03:45.581Z,99.90
2023-05-21T23:06:13.137Z,99.90
2023-05-21T23:08:50.871Z,99.90
2023-05-21T23:11:18.951Z,99.90
2023-05-21T23:13:46.830Z,99.90
2023-05-21T23:16:15.439Z,99.90
2023-05-21T23:18:43.226Z,99.90
2023-05-21T23:21:11.185Z,99.90
2023-05-21T23:23:43.489Z,99.90
2023-05-21T23:26:11.574Z,99.90
2023-05-21T23:28:41.989Z,99.90
2023-05-21T23:31:10.061Z,99.90
2023-05-21T23:33:37.781Z,99.90
2023-05-21T23:36:05.593Z,99.90
2023-05-21T23:38:34.018Z,99.90
2023-05-21T23:41:01.879Z,99.90
2023-05-21T23:43:40.983Z,99.90
2023-05-21T23:46:08.810Z,99.90
2023-05-21T23:48:36.463Z,99.90
2023-05-21T23:51:29.180Z,99.90
2023-05-21T23:53:57.012Z,99.90
2023-05-21T23:56:25.181Z,99.90
2023-05-21T23:58:57.047Z,99.90
